Terminal Aerodrome Forecast
Issued by NWS

Home | Current Version | Previous Version | Text Only | Print | Product List | Glossary On
Versions: 1 2 3 4 5 6 7 8 9 10 11 12 13 14 15 16 17 18 19 20 21 22 23 24 25 26 27 28
000
FTUS41 KBUF 102300 RRA
TAFIAG
TAF
KIAG 102342Z 1100/1124 03007KT P6SM SKC
     FM110400 VRB03KT P6SM SKC
     FM111600 07004KT P6SM FEW050
     FM111900 03005KT P6SM BKN050
     FM112300 06005KT P6SM SCT050=

USA.gov is the U.S. government's official web portal to all federal, state and local government web resources and services.